map of KAO home
KAO - Airport
Location
City:  Kuusamo, Pohjois-Pohjanmaa (Norra Österbotten, Northern Ostrobothnia), Finland
ICAO:EFKS
IATA:KAO

Details
Type:Airport (Aerodrome, Airfield)
Latitude:65°59'15"N (65.987575)
Longitude:29°14'22"E (29.239381)
Datum:WGS 1984
Elevation:866 ft (264 m)
Variation:12.83°E (WMM2015 magnetic declination)
0.18° annual change
Runways:1
Longest:8202 × 148 ft (2500 × 45 m), paved

Time
Time Zone:UTC+2 (DST+3)
Local Time:

Weather
METAR:EFKS 171320Z AUTO 23010KT 180V290 CAVOK 18/07 Q1017

Related Locations
Nearby:
Farthest:NZTB: 11260 mi / 18121 km
Terra Nova Bay [Mario Zucchelli Station], AQ

Find:

   beyond  
but within

Other Information
Maps:
NOTAMs:
Links:
Sources:

  
flag of Finland   

Sectional Chart

Flight Planning
at skyvector.com

Satellite Image

Google Maps Satellite view

 

Copyright © 2004-2017 Karl L. Swartz. All rights reserved.
The Great Circle Mapper name and logo are trademarks of the Great Circle Mapper.
All other trademarks mentioned herein belong to their respective owners.
Please see credits for attibutions and further copyright information.

  Follow gcmap on Facebook Follow gcmap on Twitter Follow gcmap on Google+ GCmap on LinkedIn

hCard Microformat

Geo Microformat